createdAt,value
2022-11-20T00:01:14.386Z,26.25
2022-11-20T00:03:41.818Z,24.77
2022-11-20T00:06:10.243Z,23.60
2022-11-20T00:08:37.681Z,25.55
2022-11-20T00:11:06.215Z,23.58
2022-11-20T00:13:34.300Z,23.67
2022-11-20T00:16:02.455Z,21.65
2022-11-20T00:18:30.463Z,22.55
2022-11-20T00:21:04.862Z,24.30
2022-11-20T00:23:32.294Z,24.20
2022-11-20T00:26:03.204Z,26.10
2022-11-20T00:28:30.965Z,22.98
2022-11-20T00:31:08.368Z,23.17
2022-11-20T00:33:36.095Z,27.25
2022-11-20T00:36:07.606Z,27.05
2022-11-20T00:38:35.279Z,23.27
2022-11-20T00:41:03.738Z,26.23
2022-11-20T00:43:31.086Z,25.52
2022-11-20T00:46:01.860Z,26.45
2022-11-20T00:48:29.578Z,33.15
2022-11-20T00:50:57.362Z,26.17
2022-11-20T00:53:24.866Z,24.15
2022-11-20T00:55:56.085Z,31.58
2022-11-20T00:58:24.877Z,30.58
2022-11-20T01:00:52.512Z,31.65
2022-11-20T01:03:25.581Z,28.98
2022-11-20T01:05:54.236Z,27.10
2022-11-20T01:08:21.590Z,28.17
2022-11-20T01:10:48.922Z,27.00
2022-11-20T01:13:35.032Z,25.90
2022-11-20T01:16:09.824Z,24.58
2022-11-20T01:18:38.003Z,31.33
2022-11-20T01:21:06.744Z,29.88
2022-11-20T01:23:37.776Z,29.13
2022-11-20T01:26:05.832Z,25.88
2022-11-20T01:28:33.256Z,27.83
2022-11-20T01:31:00.828Z,28.27
2022-11-20T01:33:28.368Z,25.70
2022-11-20T01:36:04.387Z,28.55
2022-11-20T01:38:31.909Z,27.02
2022-11-20T01:40:59.145Z,32.60
2022-11-20T01:43:26.960Z,36.97
2022-11-20T01:46:13.097Z,37.22
2022-11-20T01:48:44.859Z,29.90
2022-11-20T01:51:24.170Z,34.42
2022-11-20T01:53:52.348Z,32.88
2022-11-20T01:56:19.799Z,29.75
2022-11-20T01:58:50.622Z,29.70
2022-11-20T02:01:18.134Z,34.15
2022-11-20T02:03:45.618Z,35.55
2022-11-20T02:06:39.440Z,40.63
2022-11-20T02:09:06.957Z,39.67
2022-11-20T02:11:34.416Z,37.75
2022-11-20T02:14:01.929Z,44.08
2022-11-20T02:16:48.129Z,43.17
2022-11-20T02:19:44.657Z,41.53
2022-11-20T02:22:18.997Z,41.63
2022-11-20T02:24:46.890Z,34.60
2022-11-20T02:27:15.615Z,38.33
2022-11-20T02:29:46.578Z,39.20
2022-11-20T02:32:23.747Z,43.08
2022-11-20T02:34:51.052Z,38.63
2022-11-20T02:37:18.546Z,54.90
2022-11-20T02:39:47.793Z,41.67
2022-11-20T02:42:15.157Z,38.55
2022-11-20T02:44:42.755Z,45.05
2022-11-20T02:47:10.221Z,40.38
2022-11-20T02:49:37.492Z,41.50
2022-11-20T02:52:04.801Z,43.20
2022-11-20T02:54:32.479Z,42.03
2022-11-20T02:56:59.681Z,38.10
2022-11-20T02:59:27.003Z,45.42
2022-11-20T03:01:54.264Z,48.22
2022-11-20T03:04:21.601Z,44.80
2022-11-20T03:06:48.829Z,46.85
2022-11-20T03:09:16.157Z,39.97
2022-11-20T03:11:43.593Z,43.78
2022-11-20T03:14:10.965Z,38.95
2022-11-20T03:16:38.168Z,37.40
2022-11-20T03:19:05.471Z,38.05
2022-11-20T03:21:34.356Z,33.65
2022-11-20T03:24:01.794Z,37.05
2022-11-20T03:26:29.149Z,37.17
2022-11-20T03:29:00.256Z,36.20
2022-11-20T03:31:29.130Z,37.55
2022-11-20T03:33:57.273Z,36.35
2022-11-20T03:36:24.722Z,36.63
2022-11-20T03:38:52.056Z,31.73
2022-11-20T03:41:23.572Z,30.05
2022-11-20T03:43:55.035Z,32.30
2022-11-20T03:46:22.735Z,30.20
2022-11-20T03:48:52.126Z,34.40
2022-11-20T03:51:23.978Z,28.98
2022-11-20T03:53:52.152Z,29.05
2022-11-20T03:56:20.525Z,31.85
2022-11-20T03:58:47.881Z,32.38
2022-11-20T04:01:17.461Z,32.25
2022-11-20T04:03:45.369Z,36.97
2022-11-20T04:06:13.922Z,39.13
2022-11-20T04:08:42.030Z,37.60
2022-11-20T04:11:11.683Z,34.58
2022-11-20T04:13:39.125Z,38.05
2022-11-20T04:16:06.983Z,39.60
2022-11-20T04:18:34.542Z,42.58
2022-11-20T04:21:01.970Z,38.00
2022-11-20T04:23:29.525Z,36.15
2022-11-20T04:26:02.436Z,40.22
2022-11-20T04:28:29.771Z,42.63
2022-11-20T04:31:03.165Z,40.97
2022-11-20T04:33:34.274Z,31.67
2022-11-20T04:36:05.790Z,35.33
2022-11-20T04:38:33.268Z,36.78
2022-11-20T04:41:01.193Z,40.05
2022-11-20T04:43:28.907Z,33.30
2022-11-20T04:45:57.160Z,37.92
2022-11-20T04:48:25.117Z,35.58
2022-11-20T04:50:52.642Z,34.65
2022-11-20T04:53:20.473Z,32.67
2022-11-20T04:55:48.045Z,36.65
2022-11-20T04:58:15.762Z,40.17
2022-11-20T05:00:43.087Z,33.38
2022-11-20T05:03:10.358Z,34.88
2022-11-20T05:05:37.644Z,38.50
2022-11-20T05:08:05.131Z,36.80
2022-11-20T05:10:32.358Z,38.40
2022-11-20T05:13:02.047Z,35.90
2022-11-20T05:15:29.621Z,33.72
2022-11-20T05:17:57.519Z,37.13
2022-11-20T05:20:24.814Z,41.75
2022-11-20T05:22:52.068Z,44.35
2022-11-20T05:25:19.444Z,37.53
2022-11-20T05:27:46.726Z,44.38
2022-11-20T05:30:16.820Z,35.83
2022-11-20T05:32:44.182Z,35.17
2022-11-20T05:35:13.042Z,40.60
2022-11-20T05:37:40.445Z,37.40
2022-11-20T05:40:08.320Z,40.45
2022-11-20T05:42:36.661Z,38.15
2022-11-20T05:45:05.629Z,37.72
2022-11-20T05:47:34.554Z,40.15
2022-11-20T05:50:02.015Z,36.40
2022-11-20T05:52:32.433Z,37.78
2022-11-20T05:54:59.778Z,39.60
2022-11-20T05:57:30.165Z,38.00
2022-11-20T05:59:57.474Z,37.40
2022-11-20T06:02:24.765Z,42.28
2022-11-20T06:04:52.168Z,41.63
2022-11-20T06:07:19.665Z,43.60
2022-11-20T06:09:47.068Z,44.05
2022-11-20T06:12:14.790Z,42.53
2022-11-20T06:14:42.101Z,45.35
2022-11-20T06:17:09.382Z,44.67
2022-11-20T06:19:37.029Z,45.22
2022-11-20T06:22:04.245Z,47.97
2022-11-20T06:24:31.551Z,47.67
2022-11-20T06:26:59.003Z,44.47
2022-11-20T06:29:30.195Z,44.78
2022-11-20T06:32:01.199Z,44.05
2022-11-20T06:34:28.424Z,52.53
2022-11-20T06:36:55.741Z,47.83
2022-11-20T06:39:23.279Z,51.53
2022-11-20T06:41:54.437Z,47.40
2022-11-20T06:44:26.133Z,46.03
2022-11-20T06:46:53.456Z,53.03
2022-11-20T06:49:21.298Z,52.88
2022-11-20T06:51:50.026Z,55.80
2022-11-20T06:54:17.556Z,53.90
2022-11-20T06:56:48.396Z,62.30
2022-11-20T06:59:15.861Z,66.18
2022-11-20T07:01:43.171Z,58.95
2022-11-20T07:04:10.458Z,53.45
2022-11-20T07:06:39.775Z,59.42
2022-11-20T07:09:22.135Z,56.03
2022-11-20T07:11:49.855Z,55.38
2022-11-20T07:14:17.080Z,56.72
2022-11-20T07:16:44.387Z,48.42
2022-11-20T07:19:11.998Z,52.42
2022-11-20T07:21:39.290Z,56.75
2022-11-20T07:24:06.526Z,59.10
2022-11-20T07:26:33.867Z,60.05
2022-11-20T07:29:01.099Z,64.10
2022-11-20T07:31:34.303Z,67.22
2022-11-20T07:34:01.729Z,58.25
2022-11-20T07:36:30.827Z,58.80
2022-11-20T07:38:58.180Z,58.40
2022-11-20T07:41:26.607Z,62.72
2022-11-20T07:43:54.050Z,58.88
2022-11-20T07:46:21.296Z,58.20
2022-11-20T07:48:48.612Z,50.83
2022-11-20T07:51:15.875Z,67.85
2022-11-20T07:53:45.346Z,66.65
2022-11-20T07:56:12.612Z,67.55
2022-11-20T07:58:39.961Z,60.08
2022-11-20T08:01:08.152Z,58.13
2022-11-20T08:03:35.826Z,66.85
2022-11-20T08:06:03.294Z,58.03
2022-11-20T08:08:33.652Z,51.00
2022-11-20T08:11:22.923Z,53.97
2022-11-20T08:14:09.244Z,56.08
2022-11-20T08:16:36.977Z,56.00
2022-11-20T08:19:04.222Z,58.25
2022-11-20T08:21:37.794Z,58.42
2022-11-20T08:24:05.969Z,53.87
2022-11-20T08:26:33.254Z,55.63
2022-11-20T08:29:00.921Z,59.40
2022-11-20T08:31:28.845Z,55.65
2022-11-20T08:33:56.147Z,61.28
2022-11-20T08:36:24.123Z,62.75
2022-11-20T08:38:52.146Z,68.75
2022-11-20T08:41:26.484Z,57.53
2022-11-20T08:44:03.752Z,61.78
2022-11-20T08:46:36.428Z,57.20
2022-11-20T08:49:09.431Z,67.53
2022-11-20T08:51:37.338Z,71.55
2022-11-20T08:54:04.894Z,60.15
2022-11-20T08:56:32.283Z,63.55
2022-11-20T08:59:20.543Z,59.03
2022-11-20T09:01:50.041Z,60.60
2022-11-20T09:04:17.463Z,56.92
2022-11-20T09:06:44.921Z,61.45
2022-11-20T09:09:12.268Z,65.03
2022-11-20T09:11:39.858Z,61.85
2022-11-20T09:14:07.347Z,62.78
2022-11-20T09:16:34.648Z,62.80
2022-11-20T09:19:33.565Z,60.42
2022-11-20T09:21:49.444Z,55.85
2022-11-20T09:24:17.352Z,66.32
2022-11-20T09:26:44.668Z,71.10
2022-11-20T09:29:11.984Z,64.70
2022-11-20T09:31:39.354Z,64.82
2022-11-20T09:34:06.603Z,75.07
2022-11-20T09:36:36.338Z,63.05
2022-11-20T09:39:03.874Z,66.47
2022-11-20T09:41:50.749Z,67.78
2022-11-20T09:44:30.117Z,66.57
2022-11-20T09:47:04.627Z,60.50
2022-11-20T09:49:42.906Z,60.95
2022-11-20T09:52:13.025Z,61.35
2022-11-20T09:54:42.515Z,53.58
2022-11-20T09:57:17.851Z,59.00
2022-11-20T09:59:47.158Z,58.58
2022-11-20T10:02:19.736Z,58.22
2022-11-20T10:04:53.444Z,48.97
2022-11-20T10:07:33.591Z,50.05
2022-11-20T10:10:04.419Z,50.15
2022-11-20T10:12:47.038Z,57.22
2022-11-20T10:15:32.845Z,49.80
2022-11-20T10:18:13.899Z,50.30
2022-11-20T10:21:06.796Z,46.63
2022-11-20T10:23:52.621Z,46.55
2022-11-20T10:26:38.612Z,54.45
2022-11-20T10:29:15.077Z,53.50
2022-11-20T10:31:43.406Z,43.63
2022-11-20T10:34:22.943Z,50.85
2022-11-20T10:36:58.732Z,49.25
2022-11-20T10:39:34.136Z,43.75
2022-11-20T10:42:07.151Z,45.00
2022-11-20T10:44:57.708Z,48.05
2022-11-20T10:47:27.552Z,42.28
2022-11-20T10:49:55.724Z,41.67
2022-11-20T10:52:45.431Z,40.35
2022-11-20T10:55:29.214Z,39.75
2022-11-20T10:58:03.026Z,45.03
2022-11-20T11:00:32.856Z,44.60
2022-11-20T11:03:04.208Z,37.13
2022-11-20T11:05:31.834Z,40.83
2022-11-20T11:08:00.946Z,37.25
2022-11-20T11:10:47.276Z,33.10
2022-11-20T11:13:21.750Z,31.42
2022-11-20T11:15:49.416Z,29.73
2022-11-20T11:18:30.942Z,33.42
2022-11-20T11:20:58.880Z,37.45
2022-11-20T11:23:42.136Z,33.25
2022-11-20T11:26:21.324Z,28.50
2022-11-20T11:28:55.560Z,30.23
2022-11-20T11:31:28.702Z,26.55
2022-11-20T11:34:15.870Z,26.63
2022-11-20T11:36:43.482Z,26.67
2022-11-20T11:39:16.581Z,25.10
2022-11-20T11:41:43.950Z,22.30
2022-11-20T11:44:44.699Z,24.75
2022-11-20T11:47:20.030Z,18.73
2022-11-20T11:49:47.376Z,20.83
2022-11-20T11:52:18.815Z,18.02
2022-11-20T11:54:53.352Z,18.08
2022-11-20T11:57:31.423Z,16.73
2022-11-20T12:00:12.388Z,16.88
2022-11-20T12:02:39.677Z,21.63
2022-11-20T12:05:07.008Z,16.92
2022-11-20T12:07:47.112Z,19.42
2022-11-20T12:10:18.606Z,16.42
2022-11-20T12:12:48.148Z,12.32
2022-11-20T12:15:28.285Z,11.57
2022-11-20T12:17:55.741Z,9.20
2022-11-20T12:20:26.105Z,11.60
2022-11-20T12:22:53.909Z,10.93
2022-11-20T12:25:21.242Z,8.70
2022-11-20T12:27:59.579Z,9.30
2022-11-20T12:30:27.070Z,7.95
2022-11-20T12:33:13.128Z,9.90
2022-11-20T12:35:58.983Z,6.95
2022-11-20T12:41:37.882Z,5.57
2022-11-20T12:44:24.032Z,7.40
2022-11-20T12:47:23.682Z,6.15
2022-11-20T12:49:58.353Z,6.68
2022-11-20T12:52:37.734Z,5.47
2022-11-20T12:55:24.375Z,4.43
2022-11-20T12:57:57.557Z,8.88
2022-11-20T13:00:25.799Z,7.57
2022-11-20T13:02:52.970Z,7.30
2022-11-20T13:05:22.312Z,7.78
2022-11-20T13:07:52.048Z,6.90
2022-11-20T13:10:25.440Z,6.00
2022-11-20T13:13:05.524Z,5.20
2022-11-20T13:15:46.717Z,5.07
2022-11-20T13:18:14.903Z,3.60
2022-11-20T13:20:49.263Z,5.13
2022-11-20T13:23:27.025Z,6.43
2022-11-20T13:26:07.027Z,4.22
2022-11-20T13:28:34.528Z,4.03
2022-11-20T13:31:02.496Z,8.10
2022-11-20T13:33:33.903Z,5.40
2022-11-20T13:36:05.890Z,8.13
2022-11-20T13:38:49.560Z,8.27
2022-11-20T13:41:39.077Z,6.15
2022-11-20T13:44:17.235Z,7.38
2022-11-20T13:46:46.002Z,5.05
2022-11-20T13:49:33.754Z,4.13
2022-11-20T13:52:16.275Z,3.97
2022-11-20T13:54:52.600Z,6.80
2022-11-20T13:57:38.717Z,4.72
2022-11-20T14:00:11.955Z,5.05
2022-11-20T14:02:39.723Z,5.13
2022-11-20T14:05:07.316Z,5.75
2022-11-20T14:07:40.062Z,4.45
2022-11-20T14:10:07.857Z,7.35
2022-11-20T14:12:35.538Z,5.22
2022-11-20T14:15:03.059Z,7.05
2022-11-20T14:17:30.219Z,5.78
2022-11-20T14:20:00.407Z,5.03
2022-11-20T14:22:28.222Z,6.82
2022-11-20T14:25:07.919Z,5.28
2022-11-20T14:27:37.596Z,5.25
2022-11-20T14:30:05.656Z,6.07
2022-11-20T14:32:33.221Z,6.10
2022-11-20T14:35:03.989Z,5.43
2022-11-20T14:37:35.150Z,7.78
2022-11-20T14:40:02.647Z,10.52
2022-11-20T14:42:31.852Z,4.72
2022-11-20T14:45:00.944Z,17.17
2022-11-20T14:47:29.529Z,14.88
2022-11-20T14:49:57.681Z,8.13
2022-11-20T14:52:26.005Z,15.43
2022-11-20T14:55:00.366Z,8.35
2022-11-20T14:57:35.441Z,15.13
2022-11-20T15:00:07.008Z,11.73
2022-11-20T15:02:34.367Z,12.75
2022-11-20T15:05:04.483Z,12.88
2022-11-20T15:07:36.386Z,15.60
2022-11-20T15:10:08.851Z,13.25
2022-11-20T15:12:37.617Z,16.77
2022-11-20T15:15:06.239Z,12.63
2022-11-20T15:17:34.073Z,11.25
2022-11-20T15:20:02.720Z,13.02
2022-11-20T15:22:30.062Z,10.80
2022-11-20T15:24:57.358Z,17.30
2022-11-20T15:27:24.754Z,9.90
2022-11-20T15:29:51.980Z,13.80
2022-11-20T15:32:19.353Z,12.30
2022-11-20T15:34:46.859Z,16.23
2022-11-20T15:37:17.019Z,9.40
2022-11-20T15:39:44.330Z,12.25
2022-11-20T15:42:11.801Z,15.00
2022-11-20T15:44:39.242Z,13.50
2022-11-20T15:47:06.692Z,19.60
2022-11-20T15:49:34.145Z,14.00
2022-11-20T15:52:01.427Z,16.63
2022-11-20T15:54:28.707Z,12.00
2022-11-20T15:56:55.993Z,10.57
2022-11-20T15:59:23.351Z,12.57
2022-11-20T16:01:50.895Z,10.80
2022-11-20T16:04:24.623Z,12.70
2022-11-20T16:06:52.375Z,17.55
2022-11-20T16:09:19.626Z,11.32
2022-11-20T16:11:51.422Z,12.27
2022-11-20T16:14:37.698Z,12.65
2022-11-20T16:17:05.005Z,13.68
2022-11-20T16:19:32.273Z,7.65
2022-11-20T16:22:03.091Z,11.52
2022-11-20T16:24:31.159Z,12.45
2022-11-20T16:26:58.939Z,15.57
2022-11-20T16:29:26.429Z,13.88
2022-11-20T16:31:53.739Z,15.02
2022-11-20T16:34:21.084Z,12.52
2022-11-20T16:36:49.777Z,16.70
2022-11-20T16:39:23.099Z,20.95
2022-11-20T16:41:51.211Z,11.13
2022-11-20T16:44:18.841Z,11.75
2022-11-20T16:46:46.229Z,14.55
2022-11-20T16:49:14.964Z,11.77
2022-11-20T16:51:43.248Z,11.57
2022-11-20T16:54:13.059Z,14.27
2022-11-20T16:56:43.020Z,9.55
2022-11-20T16:59:10.833Z,10.00
2022-11-20T17:01:40.305Z,6.75
2022-11-20T17:04:07.883Z,11.52
2022-11-20T17:06:36.852Z,6.70
2022-11-20T17:09:05.736Z,8.90
2022-11-20T17:11:33.686Z,8.30
2022-11-20T17:14:01.100Z,8.73
2022-11-20T17:16:28.550Z,12.77
2022-11-20T17:19:02.288Z,14.85
2022-11-20T17:21:30.588Z,15.38
2022-11-20T17:24:32.041Z,8.27
2022-11-20T17:26:59.614Z,13.93
2022-11-20T17:29:27.066Z,14.48
2022-11-20T17:31:55.120Z,14.60
2022-11-20T17:34:22.677Z,12.80
2022-11-20T17:36:50.547Z,11.00
2022-11-20T17:39:18.276Z,9.77
2022-11-20T17:42:06.530Z,11.98
2022-11-20T17:44:34.393Z,10.52
2022-11-20T17:47:01.914Z,10.70
2022-11-20T17:49:29.437Z,11.48
2022-11-20T17:51:56.665Z,10.02
2022-11-20T17:54:24.438Z,10.40
2022-11-20T17:57:10.915Z,12.38
2022-11-20T17:59:39.111Z,17.02
2022-11-20T18:02:06.526Z,18.33
2022-11-20T18:04:33.971Z,18.63
2022-11-20T18:07:01.395Z,13.60
2022-11-20T18:09:31.152Z,13.63
2022-11-20T18:11:58.493Z,14.25
2022-11-20T18:14:32.455Z,13.23
2022-11-20T18:17:02.877Z,9.45
2022-11-20T18:19:32.884Z,19.48
2022-11-20T18:22:01.782Z,11.20
2022-11-20T18:24:29.299Z,10.57
2022-11-20T18:26:57.842Z,13.65
2022-11-20T18:29:26.022Z,13.93
2022-11-20T18:31:53.923Z,12.32
2022-11-20T18:34:21.480Z,14.18
2022-11-20T18:36:49.704Z,13.77
2022-11-20T18:39:18.089Z,12.25
2022-11-20T18:42:05.742Z,11.52
2022-11-20T18:44:51.495Z,12.52
2022-11-20T18:47:20.408Z,8.32
2022-11-20T18:49:51.478Z,12.15
2022-11-20T18:52:23.580Z,9.10
2022-11-20T18:54:51.375Z,15.05
2022-11-20T18:57:22.546Z,15.20
2022-11-20T18:59:50.007Z,11.25
2022-11-20T19:02:18.934Z,18.17
2022-11-20T19:04:46.441Z,12.35
2022-11-20T19:07:14.129Z,12.77
2022-11-20T19:09:42.435Z,14.75
2022-11-20T19:12:10.358Z,14.05
2022-11-20T19:14:37.714Z,14.05
2022-11-20T19:17:06.819Z,19.55
2022-11-20T19:19:36.936Z,15.75
2022-11-20T19:22:04.278Z,14.23
2022-11-20T19:24:31.534Z,13.23
2022-11-20T19:26:58.925Z,11.55
2022-11-20T19:29:27.182Z,10.85
2022-11-20T19:31:54.734Z,13.48
2022-11-20T19:34:22.267Z,9.20
2022-11-20T19:36:49.872Z,11.90
2022-11-20T19:39:17.745Z,14.73
2022-11-20T19:41:45.098Z,12.88
2022-11-20T19:44:14.123Z,14.00
2022-11-20T19:46:41.922Z,17.05
2022-11-20T19:49:10.213Z,11.48
2022-11-20T19:51:42.042Z,13.55
2022-11-20T19:54:09.446Z,13.10
2022-11-20T19:56:36.704Z,12.00
2022-11-20T19:59:04.190Z,7.55
2022-11-20T20:01:31.949Z,11.95
2022-11-20T20:04:05.582Z,9.40
2022-11-20T20:06:35.581Z,12.23
2022-11-20T20:09:05.241Z,10.82
2022-11-20T20:11:33.269Z,10.75
2022-11-20T20:14:04.525Z,9.18
2022-11-20T20:16:31.890Z,9.75
2022-11-20T20:19:03.787Z,11.88
2022-11-20T20:21:31.728Z,12.40
2022-11-20T20:23:59.279Z,9.05
2022-11-20T20:26:28.107Z,14.02
2022-11-20T20:28:56.281Z,9.57
2022-11-20T20:31:24.982Z,12.48
2022-11-20T20:33:52.468Z,13.07
2022-11-20T20:36:21.209Z,9.60
2022-11-20T20:38:48.592Z,12.77
2022-11-20T20:41:19.548Z,15.13
2022-11-20T20:44:05.862Z,10.43
2022-11-20T20:46:33.239Z,14.48
2022-11-20T20:49:00.799Z,12.75
2022-11-20T20:51:28.283Z,17.02
2022-11-20T20:53:55.711Z,17.95
2022-11-20T20:56:23.125Z,13.32
2022-11-20T20:58:50.702Z,11.63
2022-11-20T21:01:19.042Z,13.20
2022-11-20T21:03:46.369Z,10.70
2022-11-20T21:06:13.896Z,12.80
2022-11-20T21:08:44.275Z,18.33
2022-11-20T21:11:16.144Z,14.82
2022-11-20T21:13:44.052Z,17.45
2022-11-20T21:16:11.962Z,10.63
2022-11-20T21:18:39.424Z,12.30
2022-11-20T21:21:26.542Z,17.67
2022-11-20T21:23:54.602Z,16.15
2022-11-20T21:26:29.641Z,18.88
2022-11-20T21:28:58.127Z,12.95
2022-11-20T21:31:26.798Z,12.73
2022-11-20T21:33:55.369Z,10.18
2022-11-20T21:36:23.852Z,10.90
2022-11-20T21:38:52.100Z,9.20
2022-11-20T21:41:19.532Z,12.00
2022-11-20T21:43:51.565Z,13.55
2022-11-20T21:46:27.096Z,12.52
2022-11-20T21:48:54.417Z,13.07
2022-11-20T21:51:22.905Z,15.88
2022-11-20T21:53:50.660Z,13.60
2022-11-20T21:56:20.597Z,14.32
2022-11-20T21:58:49.003Z,12.07
2022-11-20T22:01:17.587Z,11.50
2022-11-20T22:03:49.703Z,11.55
2022-11-20T22:06:17.654Z,13.55
2022-11-20T22:08:45.010Z,12.10
2022-11-20T22:11:20.028Z,9.88
2022-11-20T22:14:06.265Z,7.57
2022-11-20T22:16:34.522Z,7.78
2022-11-20T22:19:01.768Z,11.48
2022-11-20T22:21:30.592Z,9.80
2022-11-20T22:23:58.278Z,12.63
2022-11-20T22:26:29.949Z,12.10
2022-11-20T22:28:58.275Z,11.45
2022-11-20T22:31:27.137Z,10.02
2022-11-20T22:33:54.690Z,8.38
2022-11-20T22:36:23.239Z,7.15
2022-11-20T22:38:50.607Z,12.18
2022-11-20T22:41:19.144Z,10.73
2022-11-20T22:43:46.849Z,11.48
2022-11-20T22:46:18.069Z,14.25
2022-11-20T22:48:52.514Z,12.23
2022-11-20T22:51:20.985Z,11.35
2022-11-20T22:53:48.374Z,14.40
2022-11-20T22:56:16.094Z,16.38
2022-11-20T22:58:44.393Z,16.45
2022-11-20T23:01:15.908Z,14.32
2022-11-20T23:03:44.254Z,12.75
2022-11-20T23:06:11.996Z,13.10
2022-11-20T23:08:39.941Z,11.63
2022-11-20T23:11:08.485Z,9.00
2022-11-20T23:13:35.868Z,14.85
2022-11-20T23:16:07.009Z,9.05
2022-11-20T23:18:34.439Z,12.23
2022-11-20T23:21:08.136Z,9.80
2022-11-20T23:23:35.730Z,9.43
2022-11-20T23:26:03.760Z,11.35
2022-11-20T23:28:31.394Z,7.80
2022-11-20T23:30:58.789Z,9.57
2022-11-20T23:33:26.905Z,9.10
2022-11-20T23:35:54.212Z,8.73
2022-11-20T23:38:21.670Z,11.05
2022-11-20T23:40:52.788Z,7.82
2022-11-20T23:43:21.291Z,12.20
2022-11-20T23:45:52.853Z,12.73
2022-11-20T23:48:20.835Z,7.28
2022-11-20T23:50:48.079Z,7.05
2022-11-20T23:53:15.935Z,14.13
2022-11-20T23:55:50.414Z,9.77
2022-11-20T23:58:18.239Z,9.65
